Time;durP1;ratioP1;P1;durP2;ratioP2;P2;SDS_P1;SDS_P2;PMS_P1;PMS_P2;Temp;Humidity;BMP_temperature;BMP_pressure;BME280_temperature;BME280_humidity;BME280_pressure;Samples;Min_cycle;Max_cycle;Signal;HPM_P1;HPM_P2
2022/09/17 00:01:03;;;;;;;13.03;11.83;;;;;;;16.55;100.00;99276.60;1716719;83;21461;-58
2022/09/17 00:03:32;;;;;;;12.57;11.27;;;;;;;16.52;100.00;99277.13;1716068;83;21006;-61
2022/09/17 00:06:01;;;;;;;11.57;10.43;;;;;;;16.42;100.00;99275.67;1716865;83;21128;-57
2022/09/17 00:08:29;;;;;;;12.47;10.80;;;;;;;16.37;100.00;99280.89;1716814;83;21134;-66
2022/09/17 00:10:57;;;;;;;11.57;10.37;;;;;;;16.30;100.00;99279.22;1716007;83;20996;-57
2022/09/17 00:13:26;;;;;;;11.93;10.73;;;;;;;16.27;100.00;99279.70;1717154;83;20991;-57
2022/09/17 00:15:53;;;;;;;12.53;11.23;;;;;;;16.24;100.00;99282.81;1715988;83;21054;-57
2022/09/17 00:18:21;;;;;;;12.13;10.83;;;;;;;16.20;100.00;99280.40;1717122;83;21668;-57
2022/09/17 00:20:48;;;;;;;11.80;10.47;;;;;;;16.14;100.00;99284.02;1716507;83;22594;-60
2022/09/17 00:23:15;;;;;;;12.43;10.50;;;;;;;16.16;100.00;99287.19;1716922;83;21904;-57
2022/09/17 00:25:45;;;;;;;11.53;10.37;;;;;;;16.25;100.00;99295.44;1716729;83;21007;-57
2022/09/17 00:28:13;;;;;;;13.10;11.33;;;;;;;16.27;100.00;99292.05;1716934;83;21556;-58
2022/09/17 00:30:44;;;;;;;11.70;10.50;;;;;;;16.25;100.00;99293.63;1716225;83;20995;-58
2022/09/17 00:33:15;;;;;;;12.05;10.85;;;;;;;16.30;100.00;99291.58;1717015;83;21517;-58
2022/09/17 00:35:43;;;;;;;12.43;11.18;;;;;;;16.25;100.00;99292.31;1716620;83;21018;-58
2022/09/17 00:38:10;;;;;;;12.50;11.20;;;;;;;16.20;100.00;99297.48;1716936;83;21356;-58
2022/09/17 00:40:38;;;;;;;12.50;11.20;;;;;;;15.76;100.00;99301.36;1716106;83;20979;-63
2022/09/17 00:43:08;;;;;;;13.07;11.67;;;;;;;15.91;100.00;99304.73;1716950;83;21430;-57
2022/09/17 00:45:35;;;;;;;11.47;10.27;;;;;;;16.18;100.00;99311.94;1694592;83;21140;-58
2022/09/17 00:48:05;;;;;;;12.77;11.47;;;;;;;16.24;100.00;99313.05;1716786;83;21006;-57
2022/09/17 00:50:39;;;;;;;13.73;11.47;;;;;;;16.33;100.00;99306.87;1694200;83;20982;-58
2022/09/17 00:53:13;;;;;;;17.27;12.50;;;;;;;16.40;100.00;99310.13;1716834;83;21020;-57
2022/09/17 00:55:48;;;;;;;15.20;11.33;;;;;;;16.14;100.00;99316.06;1689175;83;21023;-58
2022/09/17 00:58:16;;;;;;;14.80;12.27;;;;;;;16.43;100.00;99308.82;1666107;83;21210;-58
2022/09/17 01:00:45;;;;;;;14.40;12.90;;;;;;;16.65;100.00;99310.94;1716482;83;21077;-58
2022/09/17 01:03:12;;;;;;;12.80;11.40;;;;;;;16.68;100.00;99318.34;1716791;83;21548;-57
2022/09/17 01:05:52;;;;;;;15.03;12.87;;;;;;;16.73;100.00;99325.49;1716287;83;20880;-58
2022/09/17 01:08:36;;;;;;;13.83;12.33;;;;;;;16.77;100.00;99326.62;1716060;83;21008;-58
2022/09/17 01:12:01;;;;;;;14.70;12.57;;;;;;;16.56;100.00;99320.83;1716933;83;22065;-66
2022/09/17 01:14:59;;;;;;;15.57;12.63;;;;;;;16.63;100.00;99327.50;1716240;83;21055;-61
2022/09/17 01:17:50;;;;;;;13.73;12.30;;;;;;;16.76;100.00;99334.25;1716783;83;21078;-57
2022/09/17 01:20:28;;;;;;;14.20;12.20;;;;;;;16.68;100.00;99336.77;1717198;83;21829;-67
2022/09/17 01:23:13;;;;;;;15.87;12.83;;;;;;;16.75;100.00;99337.41;1716577;83;22203;-57
2022/09/17 01:26:01;;;;;;;14.60;11.97;;;;;;;16.76;100.00;99341.62;1715684;83;22288;-58
2022/09/17 01:28:58;;;;;;;17.47;13.50;;;;;;;16.90;100.00;99342.57;1716835;83;21455;-57
2022/09/17 01:31:39;;;;;;;14.80;12.57;;;;;;;16.92;100.00;99343.11;1716646;83;21526;-57
2022/09/17 01:34:09;;;;;;;;;;;;;;;16.97;100.00;99355.00;1719557;83;21450;-57
2022/09/17 01:36:57;;;;;;;14.73;13.23;;;;;;;17.05;100.00;99359.03;1716196;83;20093;-58
2022/09/17 01:39:33;;;;;;;13.47;12.07;;;;;;;17.06;100.00;99353.53;1716497;83;21220;-60
2022/09/17 01:42:30;;;;;;;14.03;12.53;;;;;;;16.95;100.00;99359.20;1716378;83;21027;-59
2022/09/17 01:45:20;;;;;;;14.80;13.00;;;;;;;17.02;100.00;99357.70;1716441;83;21043;-59
2022/09/17 01:48:03;;;;;;;11.88;10.68;;;;;;;17.05;100.00;99355.08;1716536;83;20953;-57
2022/09/17 01:50:53;;;;;;;12.97;11.67;;;;;;;17.14;100.00;99355.72;1716209;83;21650;-58
2022/09/17 01:53:23;;;;;;;13.10;11.40;;;;;;;17.06;100.00;99360.11;1716134;83;21263;-57
2022/09/17 01:55:51;;;;;;;12.37;11.13;;;;;;;17.15;100.00;99360.46;1717968;83;20963;-69
2022/09/17 01:58:31;;;;;;;12.70;11.40;;;;;;;17.14;100.00;99364.94;1716282;83;22467;-58
2022/09/17 02:01:04;;;;;;;13.33;12.03;;;;;;;17.11;100.00;99369.37;1716263;83;21137;-59
2022/09/17 02:03:41;;;;;;;14.43;12.93;;;;;;;17.16;100.00;99369.45;1716757;83;21031;-70
2022/09/17 02:06:15;;;;;;;14.63;12.13;;;;;;;17.32;100.00;99380.14;1716505;83;21416;-60
2022/09/17 02:08:47;;;;;;;14.70;12.00;;;;;;;17.33;100.00;99382.51;1716454;83;21062;-58
2022/09/17 02:11:16;;;;;;;15.87;11.37;;;;;;;17.32;100.00;99378.82;1717009;83;21051;-58
2022/09/17 02:14:03;;;;;;;12.93;11.50;;;;;;;17.18;100.00;99376.56;1716348;83;20987;-60
2022/09/17 02:16:39;;;;;;;14.23;11.50;;;;;;;17.32;100.00;99388.83;1717077;83;21467;-59
2022/09/17 02:19:12;;;;;;;14.67;11.77;;;;;;;17.24;100.00;99391.39;1715909;83;22044;-59
2022/09/17 02:21:46;;;;;;;18.70;12.37;;;;;;;17.41;100.00;99390.48;1716618;83;21073;-59
2022/09/17 02:24:23;;;;;;;20.93;12.50;;;;;;;17.34;100.00;99389.36;1716830;83;20987;-61
2022/09/17 02:27:29;;;;;;;12.63;11.33;;;;;;;17.32;100.00;99390.67;1716417;83;20916;-59
2022/09/17 02:29:56;;;;;;;12.60;11.30;;;;;;;17.20;100.00;99393.45;1716735;83;20968;-64
2022/09/17 02:32:23;;;;;;;15.27;11.83;;;;;;;17.26;100.00;99399.82;1716732;83;21389;-58
2022/09/17 02:34:52;;;;;;;12.27;10.93;;;;;;;17.26;100.00;99401.14;1716336;83;20987;-59
2022/09/17 02:37:19;;;;;;;12.90;11.33;;;;;;;17.32;100.00;99405.16;1716249;83;21552;-64
2022/09/17 02:39:46;;;;;;;10.93;9.60;;;;;;;17.19;100.00;99409.75;1716773;83;21444;-59
2022/09/17 02:42:36;;;;;;;14.77;12.67;;;;;;;17.18;100.00;99414.75;1716065;83;21023;-59
2022/09/17 02:45:31;;;;;;;13.60;11.30;;;;;;;17.05;100.00;99413.83;1716837;83;22486;-59
2022/09/17 02:48:24;;;;;;;12.60;11.30;;;;;;;16.88;100.00;99407.81;1716866;83;21153;-59
2022/09/17 02:51:06;;;;;;;12.90;11.30;;;;;;;16.83;100.00;99413.03;1716894;83;21008;-67
2022/09/17 02:53:57;;;;;;;11.73;10.53;;;;;;;16.61;100.00;99422.19;1716525;83;21053;-59
2022/09/17 02:56:44;;;;;;;14.23;11.90;;;;;;;16.78;100.00;99420.31;1717108;83;20991;-69
2022/09/17 02:59:21;;;;;;;15.10;11.17;;;;;;;16.78;100.00;99422.45;1716773;83;21337;-59
2022/09/17 03:02:18;;;;;;;18.97;11.10;;;;;;;16.67;100.00;99421.22;1716778;83;21430;-59
2022/09/17 03:04:46;;;;;;;12.80;11.50;;;;;;;16.68;100.00;99414.91;1715744;83;21509;-69
2022/09/17 03:07:17;;;;;;;12.07;10.07;;;;;;;16.59;100.00;99418.45;1714604;83;20995;-60
2022/09/17 03:09:44;;;;;;;13.30;11.27;;;;;;;16.60;100.00;99421.39;1714247;83;20964;-72
2022/09/17 03:12:12;;;;;;;12.10;10.63;;;;;;;16.61;100.00;99426.92;1714484;83;22640;-59
2022/09/17 03:14:40;;;;;;;14.10;10.37;;;;;;;16.64;100.00;99431.70;1714223;83;21070;-60
2022/09/17 03:17:08;;;;;;;13.37;11.27;;;;;;;16.68;100.00;99434.12;1713842;83;20869;-59
2022/09/17 03:19:36;;;;;;;11.70;10.07;;;;;;;16.63;100.00;99435.38;1714503;83;21066;-59
2022/09/17 03:22:03;;;;;;;20.97;11.17;;;;;;;16.61;100.00;99435.34;1714164;83;21046;-61
2022/09/17 03:24:30;;;;;;;17.90;11.10;;;;;;;16.56;100.00;99432.64;1714561;83;21158;-59
2022/09/17 03:26:58;;;;;;;11.43;10.33;;;;;;;16.50;100.00;99427.81;1714129;83;20996;-71
2022/09/17 03:29:25;;;;;;;12.63;10.00;;;;;;;16.58;100.00;99429.23;1714475;83;21356;-59
2022/09/17 03:31:52;;;;;;;12.10;10.20;;;;;;;16.49;100.00;99428.86;1714483;83;20979;-59
2022/09/17 03:34:20;;;;;;;11.07;8.37;;;;;;;16.70;100.00;99425.45;1714342;83;21421;-61
2022/09/17 03:36:47;;;;;;;12.67;10.10;;;;;;;16.50;100.00;99423.34;1714891;83;22292;-69
2022/09/17 03:39:16;;;;;;;11.97;10.77;;;;;;;16.38;100.00;99429.75;1721912;83;21543;-59
2022/09/17 03:41:43;;;;;;;10.77;8.57;;;;;;;16.54;100.00;99428.92;1766743;81;21011;-59
2022/09/17 03:44:10;;;;;;;10.90;9.80;;;;;;;16.50;100.00;99429.92;1766643;81;21556;-61
2022/09/17 03:46:39;;;;;;;11.23;9.83;;;;;;;16.45;100.00;99435.65;1766832;81;21086;-59
2022/09/17 03:49:07;;;;;;;12.90;10.60;;;;;;;16.47;100.00;99442.77;1766387;81;21242;-65
2022/09/17 03:51:35;;;;;;;12.87;10.70;;;;;;;16.53;100.00;99443.13;1767030;81;21794;-59
2022/09/17 03:54:02;;;;;;;11.73;10.57;;;;;;;16.52;100.00;99434.97;1766691;81;20872;-72
2022/09/17 03:56:30;;;;;;;11.10;9.90;;;;;;;16.65;100.00;99441.70;1766800;81;21450;-59
2022/09/17 03:59:00;;;;;;;12.80;10.07;;;;;;;16.76;100.00;99446.09;1766914;81;21042;-59
2022/09/17 04:01:27;;;;;;;11.57;9.93;;;;;;;16.82;100.00;99441.69;1766115;81;21272;-59
2022/09/17 04:03:54;;;;;;;12.97;11.57;;;;;;;16.87;100.00;99435.98;1766718;81;22133;-69
2022/09/17 04:06:21;;;;;;;15.73;11.67;;;;;;;16.91;100.00;99436.29;1772256;80;21406;-60
2022/09/17 04:08:50;;;;;;;12.37;11.10;;;;;;;16.93;100.00;99438.14;1774357;80;21727;-59
2022/09/17 04:11:17;;;;;;;12.83;11.53;;;;;;;16.93;100.00;99441.59;1774181;80;21488;-71
2022/09/17 04:13:45;;;;;;;12.50;10.70;;;;;;;16.95;100.00;99440.81;1774175;80;21214;-59
2022/09/17 04:16:12;;;;;;;10.93;9.83;;;;;;;17.16;100.00;99440.55;1774187;80;20916;-66
2022/09/17 04:18:39;;;;;;;11.30;10.07;;;;;;;17.20;100.00;99443.49;1774416;80;21472;-59
2022/09/17 04:21:06;;;;;;;11.83;10.67;;;;;;;17.35;100.00;99442.84;1774557;80;21077;-71
2022/09/17 04:23:34;;;;;;;11.97;10.77;;;;;;;17.47;100.00;99447.47;1774116;80;21003;-58
2022/09/17 04:26:01;;;;;;;12.70;11.00;;;;;;;17.47;100.00;99449.58;1774543;80;21245;-59
2022/09/17 04:28:28;;;;;;;11.97;10.77;;;;;;;17.50;100.00;99449.09;1773648;80;20892;-59
2022/09/17 04:30:56;;;;;;;13.37;12.07;;;;;;;17.62;100.00;99456.84;1774872;80;21821;-61
2022/09/17 04:33:24;;;;;;;13.60;12.10;;;;;;;17.73;100.00;99457.75;1774062;80;20964;-66
2022/09/17 04:35:52;;;;;;;15.00;12.07;;;;;;;17.75;100.00;99456.98;1774658;80;21088;-58
2022/09/17 04:38:21;;;;;;;12.57;11.27;;;;;;;17.64;100.00;99462.65;1773523;80;21868;-59
2022/09/17 04:40:48;;;;;;;12.47;11.17;;;;;;;17.57;100.00;99467.84;1774408;80;21358;-58
2022/09/17 04:43:16;;;;;;;13.03;11.63;;;;;;;17.68;100.00;99470.33;1774361;80;21465;-66
2022/09/17 04:45:48;;;;;;;12.77;11.47;;;;;;;17.70;100.00;99475.37;1774575;80;21066;-59
2022/09/17 04:48:15;;;;;;;12.90;11.20;;;;;;;17.73;100.00;99478.31;1773959;80;21050;-59
2022/09/17 04:50:42;;;;;;;12.43;11.23;;;;;;;17.81;100.00;99482.89;1774502;80;22232;-60
2022/09/17 04:53:10;;;;;;;13.30;11.90;;;;;;;17.91;100.00;99485.60;1773881;80;20931;-72
2022/09/17 04:55:37;;;;;;;13.40;12.00;;;;;;;17.94;100.00;99489.06;1774614;80;20992;-58
2022/09/17 04:58:04;;;;;;;13.03;11.63;;;;;;;18.06;100.00;99484.94;1774412;80;21003;-62
2022/09/17 05:00:31;;;;;;;12.53;11.33;;;;;;;18.12;100.00;99478.68;1774001;80;21513;-59
2022/09/17 05:02:58;;;;;;;12.00;10.77;;;;;;;18.24;100.00;99484.05;1774621;80;21383;-60
2022/09/17 05:05:26;;;;;;;12.43;11.13;;;;;;;18.33;100.00;99490.17;1773025;80;20987;-61
2022/09/17 05:07:53;;;;;;;12.43;11.23;;;;;;;18.33;100.00;99488.84;1769382;81;21912;-58
2022/09/17 05:10:21;;;;;;;13.40;12.10;;;;;;;18.33;100.00;99486.22;1767959;81;21478;-60
2022/09/17 05:12:50;;;;;;;12.57;11.33;;;;;;;18.31;100.00;99493.59;1769028;81;21363;-58
2022/09/17 05:15:17;;;;;;;12.07;10.70;;;;;;;18.28;100.00;99489.61;1769258;81;21146;-59
2022/09/17 05:17:44;;;;;;;12.03;10.10;;;;;;;18.26;100.00;99490.91;1768082;81;21055;-60
2022/09/17 05:20:11;;;;;;;12.70;11.03;;;;;;;18.23;100.00;99490.37;1769135;81;21501;-70
2022/09/17 05:22:50;;;;;;;12.60;11.30;;;;;;;18.26;100.00;99494.86;1769234;81;21378;-59
2022/09/17 05:25:19;;;;;;;12.93;11.23;;;;;;;18.33;100.00;99496.77;1769456;81;20912;-71
2022/09/17 05:27:46;;;;;;;12.47;11.27;;;;;;;18.40;100.00;99495.50;1768859;81;21740;-59
2022/09/17 05:30:14;;;;;;;13.13;11.60;;;;;;;18.45;100.00;99494.77;1768708;81;21007;-59
2022/09/17 05:32:42;;;;;;;12.53;11.33;;;;;;;18.38;100.00;99493.66;1769261;81;21902;-59
2022/09/17 05:35:09;;;;;;;12.30;11.10;;;;;;;18.33;100.00;99498.87;1769382;81;21457;-58
2022/09/17 05:37:36;;;;;;;13.63;10.67;;;;;;;18.24;100.00;99497.77;1768976;81;20971;-60
2022/09/17 05:40:05;;;;;;;12.70;11.40;;;;;;;18.26;100.00;99500.14;1768680;81;21272;-72
2022/09/17 05:42:33;;;;;;;12.43;11.17;;;;;;;18.42;100.00;99515.85;1769238;81;21679;-59
2022/09/17 05:45:01;;;;;;;14.60;12.43;;;;;;;18.53;100.00;99510.12;1769362;81;33524;-59
2022/09/17 05:47:28;;;;;;;13.37;11.90;;;;;;;18.57;100.00;99519.13;1769653;81;20971;-60
2022/09/17 05:49:56;;;;;;;12.87;11.67;;;;;;;18.66;100.00;99507.03;1768827;81;21433;-61
2022/09/17 05:52:27;;;;;;;13.33;12.03;;;;;;;18.76;100.00;99502.91;1769412;81;21125;-59
2022/09/17 05:54:55;;;;;;;13.10;11.80;;;;;;;18.81;100.00;99505.58;1769012;81;20975;-59
2022/09/17 05:57:22;;;;;;;12.37;10.87;;;;;;;18.81;100.00;99518.78;1769204;81;20963;-60
2022/09/17 05:59:49;;;;;;;12.70;11.40;;;;;;;18.86;100.00;99520.91;1768181;81;21533;-70
2022/09/17 06:02:16;;;;;;;11.53;10.33;;;;;;;19.07;100.00;99517.87;1769353;81;20959;-60
2022/09/17 06:04:44;;;;;;;11.63;10.53;;;;;;;19.30;100.00;99521.94;1768939;81;21126;-59
2022/09/17 06:07:11;;;;;;;11.10;10.10;;;;;;;19.58;100.00;99519.38;1772945;80;20884;-59
2022/09/17 06:09:40;;;;;;;12.00;10.90;;;;;;;19.97;100.00;99517.66;1773930;80;21418;-59
2022/09/17 06:12:07;;;;;;;12.23;10.67;;;;;;;20.62;100.00;99519.27;1773883;80;21096;-63
2022/09/17 06:14:35;;;;;;;10.57;9.60;;;;;;;21.45;100.00;99523.30;1774420;80;21966;-60
2022/09/17 06:17:02;;;;;;;10.47;9.47;;;;;;;22.00;100.00;99528.00;1774172;80;21760;-60
2022/09/17 06:19:31;;;;;;;10.40;9.40;;;;;;;22.61;100.00;99523.55;1773481;80;20979;-60
2022/09/17 06:21:58;;;;;;;10.90;9.90;;;;;;;23.31;100.00;99527.09;1774239;80;21439;-61
2022/09/17 06:24:25;;;;;;;10.33;9.33;;;;;;;23.66;100.00;99528.51;1774071;80;21476;-59
2022/09/17 06:26:53;;;;;;;10.27;9.27;;;;;;;24.14;100.00;99524.89;1774347;80;20947;-59
2022/09/17 06:29:20;;;;;;;9.38;8.48;;;;;;;24.84;100.00;99523.98;1774194;80;21284;-75
2022/09/17 06:31:48;;;;;;;10.18;9.28;;;;;;;25.63;100.00;99531.75;1774325;80;20908;-60
2022/09/17 06:34:15;;;;;;;9.63;8.73;;;;;;;26.31;100.00;99538.73;1773991;80;21051;-60
2022/09/17 06:36:43;;;;;;;7.97;7.28;;;;;;;26.63;100.00;99539.03;1774644;80;20989;-59
2022/09/17 06:39:10;;;;;;;9.15;8.35;;;;;;;27.03;100.00;99548.39;1774371;80;20900;-66
2022/09/17 06:41:38;;;;;;;7.72;6.92;;;;;;;27.46;100.00;99533.56;1773737;80;22013;-61
2022/09/17 06:44:05;;;;;;;7.42;6.72;;;;;;;28.08;100.00;99537.32;1773781;80;21058;-61
2022/09/17 06:46:32;;;;;;;7.33;6.62;;;;;;;28.73;100.00;99538.92;1774262;80;21049;-65
2022/09/17 06:48:59;;;;;;;7.10;6.42;;;;;;;29.42;100.00;99543.72;1774293;80;21003;-60
2022/09/17 06:51:26;;;;;;;6.40;5.80;;;;;;;30.13;100.00;99542.88;1773969;80;21506;-65
2022/09/17 06:53:53;;;;;;;7.17;6.53;;;;;;;30.74;100.00;99548.44;1773712;80;21226;-67
2022/09/17 06:56:21;;;;;;;6.37;5.78;;;;;;;31.30;80.31;99540.61;1774429;80;21495;-61
2022/09/17 06:58:49;;;;;;;6.67;6.08;;;;;;;31.67;77.40;99538.63;1774520;80;20880;-59
2022/09/17 07:01:16;;;;;;;7.03;6.30;;;;;;;32.01;61.24;99538.39;1774635;80;20984;-58
2022/09/17 07:03:44;;;;;;;7.03;6.42;;;;;;;32.12;61.46;99540.23;1774038;80;20998;-79
2022/09/17 07:06:11;;;;;;;6.75;6.15;;;;;;;32.40;56.33;99539.46;1772957;80;21234;-59
2022/09/17 07:08:40;;;;;;;6.65;6.05;;;;;;;32.58;52.82;99539.89;1766403;81;21545;-59
2022/09/17 07:11:07;;;;;;;7.65;6.95;;;;;;;32.61;56.34;99539.20;1766707;81;20991;-58
2022/09/17 07:13:35;;;;;;;7.60;7.00;;;;;;;32.86;51.95;99545.20;1766105;81;20928;-65
2022/09/17 07:16:03;;;;;;;7.55;6.92;;;;;;;33.05;51.54;99544.52;1766189;81;21589;-58
2022/09/17 07:18:31;;;;;;;7.90;7.20;;;;;;;33.20;49.53;99544.27;1766814;81;21871;-58
2022/09/17 07:21:01;;;;;;;8.68;7.80;;;;;;;33.27;46.71;99550.61;1766992;80;21407;-58
2022/09/17 07:23:31;;;;;;;7.15;6.55;;;;;;;33.17;47.58;99557.33;1766885;81;24894;-73
2022/09/17 07:26:00;;;;;;;7.50;6.80;;;;;;;33.18;48.24;99557.54;1766591;81;21912;-59
2022/09/17 07:28:28;;;;;;;7.95;7.25;;;;;;;33.34;45.77;99554.05;1766878;80;21021;-58
2022/09/17 07:30:55;;;;;;;7.92;7.22;;;;;;;33.44;45.54;99553.47;1767013;81;21242;-58
2022/09/17 07:33:24;;;;;;;8.18;7.47;;;;;;;33.57;44.62;99554.17;1766641;81;20892;-79
2022/09/17 07:35:56;;;;;;;7.93;7.23;;;;;;;33.55;43.11;99548.33;1767036;81;21897;-80
2022/09/17 07:38:24;;;;;;;8.38;7.65;;;;;;;33.35;43.31;99550.20;1766844;81;21625;-58
2022/09/17 07:41:08;;;;;;;8.13;7.42;;;;;;;33.22;43.63;99548.17;1766741;81;21015;-58
2022/09/17 07:43:36;;;;;;;7.70;6.92;;;;;;;33.19;44.63;99546.20;1766566;81;21173;-62
2022/09/17 07:46:03;;;;;;;8.10;7.40;;;;;;;32.99;44.84;99546.69;1766126;81;21357;-58
2022/09/17 07:48:30;;;;;;;7.90;7.20;;;;;;;33.00;43.35;99548.27;1766515;81;21794;-58
2022/09/17 07:50:59;;;;;;;7.50;6.83;;;;;;;33.20;43.89;99545.05;1766771;81;21470;-60
2022/09/17 07:53:27;;;;;;;7.75;7.12;;;;;;;33.42;43.03;99543.03;1766492;81;21042;-80
2022/09/17 07:55:56;;;;;;;7.67;7.03;;;;;;;33.55;42.16;99542.35;1766208;81;21484;-60
2022/09/17 07:58:29;;;;;;;7.30;6.67;;;;;;;33.68;43.07;99544.91;1767007;81;21026;-59
2022/09/17 08:01:03;;;;;;;8.93;8.13;;;;;;;33.82;42.54;99534.39;1767430;81;20939;-60
2022/09/17 08:03:30;;;;;;;9.73;8.80;;;;;;;33.94;40.83;99522.63;1766575;81;21051;-68
2022/09/17 08:06:07;;;;;;;8.68;7.97;;;;;;;33.98;40.96;99523.48;1767862;81;21065;-60
2022/09/17 08:08:34;;;;;;;8.45;7.65;;;;;;;34.15;40.02;99513.59;1767333;80;21211;-59
2022/09/17 08:11:09;;;;;;;7.25;6.65;;;;;;;34.20;39.60;99516.57;1767314;81;21022;-59
2022/09/17 08:13:36;;;;;;;6.92;6.33;;;;;;;34.23;39.96;99519.91;1766731;81;21351;-60
2022/09/17 08:16:12;;;;;;;8.30;6.67;;;;;;;34.43;40.29;99517.35;1766691;81;21873;-59
2022/09/17 08:18:39;;;;;;;7.20;6.00;;;;;;;34.81;39.16;99519.72;1766956;81;20948;-59
2022/09/17 08:21:07;;;;;;;7.00;6.40;;;;;;;35.02;38.97;99523.36;1766241;80;21130;-60
2022/09/17 08:23:35;;;;;;;6.53;5.92;;;;;;;35.13;37.04;99533.77;1766120;81;21820;-59
2022/09/17 08:26:02;;;;;;;7.00;6.40;;;;;;;35.21;36.69;99536.78;1766556;81;21006;-60
2022/09/17 08:28:30;;;;;;;6.22;5.62;;;;;;;35.09;36.62;99539.14;1766834;81;21085;-59
2022/09/17 08:31:03;;;;;;;7.00;6.35;;;;;;;35.00;36.58;99541.31;1766080;81;21465;-74
2022/09/17 08:33:32;;;;;;;6.35;5.75;;;;;;;35.03;36.88;99541.94;1766702;81;21371;-59
2022/09/17 08:35:59;;;;;;;6.60;5.70;;;;;;;35.21;36.03;99541.42;1766997;81;20948;-60
2022/09/17 08:38:27;;;;;;;6.12;4.87;;;;;;;35.26;34.32;99539.73;1766810;81;21068;-60
2022/09/17 08:41:32;;;;;;;5.42;4.92;;;;;;;35.21;33.70;99534.65;1766453;81;21024;-65
2022/09/17 08:44:24;;;;;;;7.78;5.20;;;;;;;35.30;33.95;99537.28;1767538;81;20896;-59
2022/09/17 08:47:05;;;;;;;4.37;3.98;;;;;;;35.04;32.98;99539.46;1766687;81;21145;-63
2022/09/17 08:49:46;;;;;;;4.70;3.37;;;;;;;34.99;31.61;99537.59;1766102;80;21012;-62
2022/09/17 08:52:35;;;;;;;4.50;3.50;;;;;;;35.01;31.90;99545.60;1766605;81;21026;-62
2022/09/17 08:55:33;;;;;;;5.05;3.90;;;;;;;35.01;30.04;99542.11;1766612;81;20940;-62
2022/09/17 08:58:39;;;;;;;4.28;3.87;;;;;;;34.78;31.10;99532.66;1767086;81;21435;-60
2022/09/17 09:01:37;;;;;;;4.95;4.05;;;;;;;34.48;31.83;99530.59;1766183;81;21235;-61
2022/09/17 09:04:37;;;;;;;5.67;3.30;;;;;;;34.28;32.75;99525.02;1766170;81;20999;-61
2022/09/17 09:07:17;;;;;;;4.97;3.90;;;;;;;34.46;32.04;99530.16;1768765;80;21088;-61
2022/09/17 09:09:49;;;;;;;5.55;3.95;;;;;;;34.49;32.00;99526.77;1774490;80;21299;-59
2022/09/17 09:12:24;;;;;;;4.60;3.80;;;;;;;34.51;32.82;99529.91;1774098;80;21473;-60
2022/09/17 09:15:07;;;;;;;4.42;3.60;;;;;;;34.47;32.91;99535.00;1774678;80;21536;-60
2022/09/17 09:17:41;;;;;;;5.25;4.45;;;;;;;34.49;32.40;99532.19;1774143;80;21061;-59
2022/09/17 09:20:16;;;;;;;4.40;3.92;;;;;;;34.34;31.95;99531.70;1773809;80;21419;-59
2022/09/17 09:22:51;;;;;;;5.33;3.12;;;;;;;34.25;32.42;99531.95;1772888;80;21508;-61
2022/09/17 09:25:28;;;;;;;5.55;3.37;;;;;;;34.13;31.77;99531.55;1774710;80;22038;-59
2022/09/17 09:28:35;;;;;;;5.15;3.67;;;;;;;34.22;32.16;99531.88;1774548;80;21426;-59
2022/09/17 09:31:10;;;;;;;5.53;3.77;;;;;;;34.21;31.71;99539.22;1774117;80;21030;-73
2022/09/17 09:33:39;;;;;;;4.70;4.20;;;;;;;34.06;31.00;99534.13;1774262;80;20997;-59
2022/09/17 09:36:09;;;;;;;4.22;3.47;;;;;;;33.95;30.74;99537.16;1773953;80;22223;-61
2022/09/17 09:38:44;;;;;;;6.20;4.75;;;;;;;33.54;30.51;99535.96;1774684;80;20964;-72
2022/09/17 09:41:24;;;;;;;5.47;4.08;;;;;;;33.15;30.92;99530.48;1738094;82;21156;-60
2022/09/17 09:44:04;;;;;;;4.30;3.87;;;;;;;32.92;31.65;99527.05;1733146;82;28611;-58
2022/09/17 09:47:19;;;;;;;4.65;3.77;;;;;;;32.72;32.13;99528.66;1707244;82;20984;-59
2022/09/17 09:49:58;;;;;;;4.35;3.95;;;;;;;32.62;32.99;99524.59;1737353;82;20984;-59
2022/09/17 09:52:45;;;;;;;4.35;3.58;;;;;;;32.97;32.85;99522.55;1737476;82;21044;-72
2022/09/17 09:55:50;;;;;;;5.37;4.08;;;;;;;33.27;32.46;99514.72;1736895;82;22495;-63
2022/09/17 09:58:31;;;;;;;4.05;3.65;;;;;;;33.36;31.18;99512.02;1737605;82;21039;-59
2022/09/17 10:00:59;;;;;;;5.60;3.77;;;;;;;32.95;30.97;99505.33;1737494;82;21566;-59
2022/09/17 10:03:31;;;;;;;5.03;3.72;;;;;;;32.46;31.55;99507.03;1737482;82;20996;-63
2022/09/17 10:06:08;;;;;;;4.65;3.50;;;;;;;32.08;31.38;99505.66;1737617;82;21746;-58
2022/09/17 10:08:43;;;;;;;4.65;4.10;;;;;;;31.63;33.03;99499.20;1741339;82;21244;-59
2022/09/17 10:11:19;;;;;;;4.22;3.70;;;;;;;31.69;32.55;99497.84;1739139;82;21061;-59
2022/09/17 10:13:46;;;;;;;4.95;4.12;;;;;;;31.58;32.31;99496.20;1743022;82;21343;-58
2022/09/17 10:16:26;;;;;;;4.10;3.58;;;;;;;31.54;32.21;99500.70;1742338;82;20983;-60
2022/09/17 10:19:10;;;;;;;4.90;3.90;;;;;;;31.59;33.49;99503.14;1742801;82;21533;-58
2022/09/17 10:21:40;;;;;;;4.60;4.10;;;;;;;31.72;33.90;99500.64;1742836;82;22038;-60
2022/09/17 10:24:30;;;;;;;4.75;3.72;;;;;;;32.06;32.67;99499.06;1742866;82;20994;-58
2022/09/17 10:27:03;;;;;;;4.05;3.62;;;;;;;32.26;32.75;99504.00;1742874;82;20998;-60
2022/09/17 10:29:30;;;;;;;4.17;3.20;;;;;;;32.46;32.03;99505.69;1742284;82;21126;-72
2022/09/17 10:31:59;;;;;;;3.95;3.15;;;;;;;32.78;31.52;99507.04;1743379;82;21044;-58
2022/09/17 10:34:29;;;;;;;4.45;3.37;;;;;;;33.04;31.30;99494.36;1743072;82;22060;-58
2022/09/17 10:36:57;;;;;;;5.58;5.08;;;;;;;33.10;31.84;99500.45;1742543;82;21004;-59
2022/09/17 10:39:37;;;;;;;4.28;3.85;;;;;;;33.04;30.39;99499.19;1742552;82;21041;-58
2022/09/17 10:42:16;;;;;;;5.78;3.90;;;;;;;32.68;29.96;99501.59;1742996;82;21050;-58
2022/09/17 10:44:57;;;;;;;4.22;3.42;;;;;;;32.25;30.75;99502.44;1742376;82;20980;-60
2022/09/17 10:47:33;;;;;;;4.92;4.03;;;;;;;32.07;31.19;99501.41;1743128;82;21714;-58
2022/09/17 10:50:07;;;;;;;4.05;3.45;;;;;;;32.06;32.25;99499.06;1742994;82;21028;-58
2022/09/17 10:52:36;;;;;;;4.40;3.62;;;;;;;32.18;31.45;99489.55;1742990;82;20998;-57
2022/09/17 10:55:12;;;;;;;4.33;3.55;;;;;;;32.37;32.94;99486.17;1742591;81;21564;-58
2022/09/17 10:58:04;;;;;;;4.12;3.45;;;;;;;32.81;31.35;99472.03;1743119;82;21033;-58
2022/09/17 11:00:51;;;;;;;5.00;3.98;;;;;;;32.93;30.96;99471.14;1743409;81;21701;-58
2022/09/17 11:04:00;;;;;;;4.22;3.75;;;;;;;32.92;30.65;99461.45;1729199;82;21405;-58
2022/09/17 11:06:42;;;;;;;4.75;3.20;;;;;;;32.75;30.37;99468.03;1743430;82;20975;-57
2022/09/17 11:09:40;;;;;;;3.98;3.25;;;;;;;32.33;30.78;99469.13;1750003;81;21133;-58
2022/09/17 11:12:46;;;;;;;6.03;3.33;;;;;;;32.02;32.02;99473.36;1751230;81;20974;-70
2022/09/17 11:15:45;;;;;;;4.22;3.37;;;;;;;31.83;32.38;99472.64;1751541;81;21295;-57
2022/09/17 11:18:39;;;;;;;4.85;3.95;;;;;;;31.75;33.65;99478.97;1750839;81;21102;-57
2022/09/17 11:21:32;;;;;;;4.10;3.52;;;;;;;31.66;32.86;99471.59;1750515;81;21050;-60
2022/09/17 11:24:28;;;;;;;5.67;3.50;;;;;;;31.87;32.96;99474.12;1751322;81;20966;-56
2022/09/17 11:27:13;;;;;;;3.95;3.55;;;;;;;32.08;32.49;99473.31;1751181;81;21520;-68
2022/09/17 11:30:14;;;;;;;5.62;3.15;;;;;;;31.74;31.76;99472.77;1750972;81;21964;-56
2022/09/17 11:33:04;;;;;;;;;;;;;;;31.41;32.52;99470.34;1753589;81;20943;-57
2022/09/17 11:35:42;;;;;;;4.87;3.50;;;;;;;31.07;33.05;99468.94;1766447;81;20313;-56
2022/09/17 11:38:31;;;;;;;4.97;3.70;;;;;;;30.78;32.30;99468.05;1751987;81;20954;-56
2022/09/17 11:41:03;;;;;;;3.62;3.08;;;;;;;30.59;32.62;99467.81;1766201;80;21502;-65
2022/09/17 11:43:34;;;;;;;4.80;3.58;;;;;;;30.53;32.48;99465.11;1766923;81;21923;-63
2022/09/17 11:46:08;;;;;;;4.40;3.62;;;;;;;30.41;33.38;99461.85;1767490;80;21580;-56
2022/09/17 11:48:49;;;;;;;4.62;3.37;;;;;;;30.43;34.51;99463.66;1767065;81;21525;-59
2022/09/17 11:51:31;;;;;;;4.55;3.83;;;;;;;30.60;35.08;99458.61;1765129;81;21069;-68